Time;durP1;ratioP1;P1;durP2;ratioP2;P2;SDS_P1;SDS_P2;PMS_P1;PMS_P2;Temp;Humidity;BMP_temperature;BMP_pressure;BME280_temperature;BME280_humidity;BME280_pressure;Samples;Min_cycle;Max_cycle;Signal;HPM_P1;HPM_P2
2022/09/12 00:02:03;;;;;;;2.58;0.63;;;;;;;17.22;100.00;99822.00;4885725;29;20048;-85
2022/09/12 00:04:29;;;;;;;4.63;0.50;;;;;;;17.21;100.00;99823.03;4901282;29;20032;-84
2022/09/12 00:06:55;;;;;;;6.70;0.95;;;;;;;17.19;100.00;99815.22;4885646;29;20044;-84
2022/09/12 00:09:22;;;;;;;1.92;0.57;;;;;;;17.19;100.00;99804.56;4900835;29;20036;-83
2022/09/12 00:11:48;;;;;;;0.80;0.40;;;;;;;17.18;100.00;99812.78;4916477;29;20035;-84
2022/09/12 00:14:17;;;;;;;0.57;0.45;;;;;;;17.19;100.00;99811.72;4900933;29;20047;-85
2022/09/12 00:16:44;;;;;;;2.30;0.40;;;;;;;17.18;100.00;99812.78;4920946;29;20036;-85
2022/09/12 00:19:11;;;;;;;1.10;0.32;;;;;;;17.19;100.00;99817.06;4885739;29;20036;-85
2022/09/12 00:21:39;;;;;;;1.33;0.65;;;;;;;17.20;100.00;99821.41;4895196;29;20051;-83
2022/09/12 00:24:06;;;;;;;5.65;0.40;;;;;;;17.18;100.00;99826.94;4901231;29;20459;-83
2022/09/12 00:26:32;;;;;;;0.60;0.40;;;;;;;17.15;100.00;99819.34;4885021;29;20091;-84
2022/09/12 00:28:59;;;;;;;3.13;0.55;;;;;;;17.15;100.00;99819.34;4908956;29;20036;-84
2022/09/12 00:31:26;;;;;;;4.22;0.50;;;;;;;17.15;100.00;99822.03;4900529;29;20428;-84
2022/09/12 00:33:55;;;;;;;1.73;0.68;;;;;;;17.16;100.00;99829.00;4877207;29;20107;-84
2022/09/12 00:36:23;;;;;;;0.40;0.20;;;;;;;17.15;100.00;99824.69;4912950;29;20091;-84
2022/09/12 00:38:51;;;;;;;1.92;0.30;;;;;;;17.15;100.00;99813.19;4900455;29;20586;-84
2022/09/12 00:41:21;;;;;;;7.78;0.55;;;;;;;17.15;100.00;99819.34;4889847;29;20079;-84
2022/09/12 00:43:58;;;;;;;1.30;0.65;;;;;;;17.15;100.00;99818.53;4900672;29;20055;-84
2022/09/12 00:46:31;;;;;;;2.00;0.52;;;;;;;17.14;100.00;99817.69;4899228;29;20060;-83
2022/09/12 00:49:11;;;;;;;7.22;0.60;;;;;;;17.14;100.00;99825.69;4899146;29;20050;-84
2022/09/12 00:51:40;;;;;;;0.63;0.40;;;;;;;17.14;100.00;99819.56;4884850;29;20099;-83
2022/09/12 00:54:12;;;;;;;1.38;0.20;;;;;;;17.12;100.00;99817.06;4884983;29;20096;-83
2022/09/12 00:56:41;;;;;;;1.85;0.30;;;;;;;17.14;100.00;99816.88;4900260;29;20087;-84
2022/09/12 00:59:24;;;;;;;2.92;0.40;;;;;;;17.13;100.00;99821.38;4900248;29;20046;-84
2022/09/12 01:01:51;;;;;;;2.83;0.32;;;;;;;17.14;100.00;99824.91;4915715;29;20052;-84
2022/09/12 01:04:21;;;;;;;0.43;0.30;;;;;;;17.13;100.00;99824.06;4887076;29;20523;-84
2022/09/12 01:06:48;;;;;;;2.45;0.52;;;;;;;17.13;100.00;99825.91;4913326;29;20392;-84
2022/09/12 01:09:18;;;;;;;1.35;0.30;;;;;;;17.13;100.00;99823.22;4884266;29;20126;-84
2022/09/12 01:11:47;;;;;;;1.42;0.47;;;;;;;17.11;100.00;99820.75;4915444;29;20064;-84
2022/09/12 01:14:15;;;;;;;1.20;0.40;;;;;;;17.11;100.00;99818.94;4884363;29;20039;-84
2022/09/12 01:16:44;;;;;;;3.95;0.47;;;;;;;17.09;100.00;99815.63;4915792;29;20038;-85
2022/09/12 01:19:37;;;;;;;0.85;0.20;;;;;;;17.09;100.00;99820.97;4899711;29;20036;-84
2022/09/12 01:22:22;;;;;;;3.92;0.40;;;;;;;17.07;100.00;99822.97;4884633;29;20187;-85
2022/09/12 01:24:54;;;;;;;3.55;0.30;;;;;;;17.08;100.00;99819.34;4896406;29;20043;-85
2022/09/12 01:27:28;;;;;;;6.20;0.50;;;;;;;17.09;100.00;99822.81;4931124;29;20040;-85
2022/09/12 01:30:31;;;;;;;0.55;0.30;;;;;;;17.08;100.00;99823.84;4891759;29;20438;-84
2022/09/12 01:33:08;;;;;;;3.97;0.50;;;;;;;17.08;100.00;99822.00;4886291;29;20051;-85
2022/09/12 01:35:42;;;;;;;0.47;0.40;;;;;;;17.11;100.00;99820.75;4889908;29;20047;-85
2022/09/12 01:38:21;;;;;;;2.30;0.40;;;;;;;17.11;100.00;99818.09;4900331;29;20123;-85
2022/09/12 01:41:05;;;;;;;2.53;0.20;;;;;;;17.08;100.00;99816.66;4900131;29;20131;-85
2022/09/12 01:43:54;;;;;;;1.95;0.28;;;;;;;17.09;100.00;99823.63;4915882;29;20044;-86
2022/09/12 01:46:36;;;;;;;0.88;0.40;;;;;;;17.09;100.00;99820.13;4917678;29;20043;-86
2022/09/12 01:49:14;;;;;;;2.08;0.28;;;;;;;17.08;100.00;99819.34;4899146;29;20032;-86
2022/09/12 01:51:55;;;;;;;2.10;0.40;;;;;;;17.07;100.00;99817.63;4904496;29;20033;-86
2022/09/12 01:54:40;;;;;;;5.20;0.32;;;;;;;17.03;100.00;99813.75;4912531;29;20036;-85
2022/09/12 01:57:12;;;;;;;1.75;0.30;;;;;;;17.03;100.00;99813.75;4900050;29;20122;-85
2022/09/12 01:59:44;;;;;;;2.70;0.30;;;;;;;17.04;100.00;99814.56;4883207;29;20071;-85
2022/09/12 02:02:37;;;;;;;0.77;0.40;;;;;;;17.01;100.00;99812.31;4898456;29;20043;-85
2022/09/12 02:05:17;;;;;;;3.60;0.30;;;;;;;17.01;100.00;99818.44;4927986;29;20035;-85
2022/09/12 02:07:55;;;;;;;2.22;0.30;;;;;;;17.02;100.00;99808.59;4906927;29;20043;-86
2022/09/12 02:10:28;;;;;;;3.15;0.30;;;;;;;17.00;100.00;99808.81;4904883;29;20480;-85
2022/09/12 02:13:01;;;;;;;0.30;0.20;;;;;;;17.00;100.00;99806.13;4875997;29;20403;-85
2022/09/12 02:15:36;;;;;;;0.57;0.20;;;;;;;17.00;100.00;99806.13;4899125;29;20044;-86
2022/09/12 02:18:05;;;;;;;1.50;0.30;;;;;;;16.99;100.00;99812.50;4900634;29;20107;-85
2022/09/12 02:20:37;;;;;;;3.67;0.70;;;;;;;16.98;100.00;99803.66;4886199;29;20472;-85
2022/09/12 02:23:08;;;;;;;0.52;0.40;;;;;;;16.97;100.00;99798.53;4900991;29;20048;-84
2022/09/12 02:25:38;;;;;;;2.05;0.50;;;;;;;16.99;100.00;99801.84;4910963;29;20535;-86
2022/09/12 02:28:11;;;;;;;0.88;0.32;;;;;;;16.98;100.00;99801.00;4916184;29;20473;-85
2022/09/12 02:30:49;;;;;;;0.20;0.20;;;;;;;16.97;100.00;99791.34;4884154;29;20062;-86
2022/09/12 02:33:26;;;;;;;0.40;0.30;;;;;;;16.96;100.00;99780.88;4899876;29;20040;-86
2022/09/12 02:36:29;;;;;;;0.55;0.22;;;;;;;16.94;100.00;99791.75;4899623;29;20460;-85
2022/09/12 02:38:55;;;;;;;1.08;0.30;;;;;;;16.96;100.00;99795.03;4913517;29;20131;-86
2022/09/12 02:41:21;;;;;;;1.27;0.30;;;;;;;16.94;100.00;99791.75;4914313;29;20123;-85
2022/09/12 02:43:49;;;;;;;4.95;0.30;;;;;;;16.93;100.00;99797.31;4884003;29;20032;-85
2022/09/12 02:46:23;;;;;;;1.58;0.30;;;;;;;16.91;100.00;99792.16;4899179;29;20084;-85
2022/09/12 02:48:49;;;;;;;0.28;0.25;;;;;;;16.91;100.00;99789.50;4899613;29;20048;-84
2022/09/12 02:51:15;;;;;;;0.95;0.40;;;;;;;16.90;100.00;99789.72;4914764;29;20032;-85
2022/09/12 02:53:41;;;;;;;2.08;0.20;;;;;;;16.88;100.00;99795.25;4913304;29;20039;-86
2022/09/12 02:56:13;;;;;;;1.75;0.30;;;;;;;16.87;100.00;99785.56;4899828;29;20369;-85
2022/09/12 02:58:39;;;;;;;0.30;0.20;;;;;;;16.85;100.00;99792.97;4908225;29;20072;-85
2022/09/12 03:01:14;;;;;;;0.57;0.30;;;;;;;16.87;100.00;99793.59;4908773;29;20039;-85
2022/09/12 03:03:59;;;;;;;1.73;0.30;;;;;;;16.86;100.00;99799.94;4899038;29;20485;-86
2022/09/12 03:06:32;;;;;;;2.05;0.28;;;;;;;16.88;100.00;99792.56;4914278;29;20176;-85
2022/09/12 03:09:05;;;;;;;5.10;0.45;;;;;;;16.88;100.00;99789.06;4915885;29;20055;-86
2022/09/12 03:11:48;;;;;;;1.20;0.30;;;;;;;16.87;100.00;99788.25;4893668;29;20031;-86
2022/09/12 03:14:35;;;;;;;2.28;0.20;;;;;;;16.87;100.00;99785.56;4899067;29;20047;-85
2022/09/12 03:17:17;;;;;;;1.27;0.30;;;;;;;16.82;100.00;99786.19;4883743;29;20096;-86
2022/09/12 03:20:02;;;;;;;4.35;0.40;;;;;;;16.81;100.00;99787.22;4901188;29;20209;-86
2022/09/12 03:22:59;;;;;;;0.75;0.20;;;;;;;16.81;100.00;99795.22;4907398;29;20040;-86
2022/09/12 03:25:47;;;;;;;0.60;0.30;;;;;;;16.82;100.00;99783.50;4898611;29;20049;-86
2022/09/12 03:28:16;;;;;;;2.05;0.50;;;;;;;16.82;100.00;99788.84;4883044;29;20045;-85
2022/09/12 03:30:45;;;;;;;0.40;0.20;;;;;;;16.83;100.00;99782.47;4896355;29;20039;-86
2022/09/12 03:33:20;;;;;;;0.15;0.13;;;;;;;16.87;100.00;99788.25;4914380;29;20523;-86
2022/09/12 03:35:47;;;;;;;1.80;0.30;;;;;;;16.86;100.00;99775.94;4884920;29;20052;-86
2022/09/12 03:38:13;;;;;;;0.80;0.30;;;;;;;16.86;100.00;99773.25;4902751;29;20040;-86
2022/09/12 03:40:39;;;;;;;2.22;0.30;;;;;;;16.86;100.00;99774.09;4902263;29;20036;-86
2022/09/12 03:43:06;;;;;;;0.17;0.13;;;;;;;16.84;100.00;99773.47;4906359;29;20489;-87
2022/09/12 03:45:33;;;;;;;1.30;0.30;;;;;;;16.82;100.00;99774.69;4891601;29;20048;-86
2022/09/12 03:47:59;;;;;;;2.22;0.30;;;;;;;16.78;100.00;99771.63;4907105;29;20035;-87
2022/09/12 03:50:25;;;;;;;0.10;0.10;;;;;;;16.76;100.00;99781.66;4903886;29;20031;-87
2022/09/12 03:52:51;;;;;;;3.45;0.30;;;;;;;16.71;100.00;99773.41;4902963;29;20036;-86
2022/09/12 03:55:17;;;;;;;4.97;0.77;;;;;;;16.70;100.00;99777.13;4918267;29;20043;-86
2022/09/12 03:57:43;;;;;;;1.23;0.35;;;;;;;16.69;100.00;99773.63;4891814;29;20099;-87
2022/09/12 04:00:10;;;;;;;2.30;0.22;;;;;;;16.68;100.00;99772.00;4900837;29;20095;-86
2022/09/12 04:02:38;;;;;;;1.00;0.30;;;;;;;16.70;100.00;99779.78;4906061;29;20036;-87
2022/09/12 04:05:05;;;;;;;3.25;0.28;;;;;;;16.72;100.00;99780.44;4886879;29;20075;-86
2022/09/12 04:07:31;;;;;;;3.30;0.25;;;;;;;16.77;100.00;99785.97;4890773;29;20043;-87
2022/09/12 04:09:56;;;;;;;0.65;0.20;;;;;;;16.79;100.00;99778.59;4884674;29;20059;-86
2022/09/12 04:12:22;;;;;;;1.05;0.20;;;;;;;16.82;100.00;99777.34;4917186;29;20040;-86
2022/09/12 04:14:48;;;;;;;0.75;0.30;;;;;;;16.83;100.00;99787.81;4886997;29;20096;-87
2022/09/12 04:17:14;;;;;;;1.80;0.30;;;;;;;16.85;100.00;99791.13;4886475;29;20493;-87
2022/09/12 04:19:40;;;;;;;3.15;0.25;;;;;;;16.85;100.00;99784.97;4881368;29;20036;-87
2022/09/12 04:22:06;;;;;;;3.75;0.20;;;;;;;16.86;100.00;99791.94;4886462;29;20040;-87
2022/09/12 04:24:32;;;;;;;3.22;0.25;;;;;;;16.86;100.00;99782.09;4902381;29;20036;-87
2022/09/12 04:26:58;;;;;;;2.70;0.20;;;;;;;16.85;100.00;99788.44;4886624;29;20076;-86
2022/09/12 04:29:24;;;;;;;1.38;0.47;;;;;;;16.84;100.00;99792.16;4918014;29;20039;-88
2022/09/12 04:31:50;;;;;;;4.90;0.50;;;;;;;16.83;100.00;99795.81;4885796;29;20491;-88
2022/09/12 04:34:16;;;;;;;1.17;0.30;;;;;;;16.79;100.00;99789.25;4903162;29;20564;-88
2022/09/12 04:36:42;;;;;;;1.75;0.30;;;;;;;16.75;100.00;99790.69;4914243;29;20040;-87
2022/09/12 04:39:09;;;;;;;0.35;0.30;;;;;;;16.73;100.00;99792.72;4903824;29;20040;-87
2022/09/12 04:41:37;;;;;;;2.28;0.50;;;;;;;16.70;100.00;99793.97;4901711;29;20072;-86
2022/09/12 04:44:10;;;;;;;0.98;0.52;;;;;;;16.68;100.00;99781.84;4878883;29;20036;-86
2022/09/12 04:46:39;;;;;;;0.90;0.30;;;;;;;16.68;100.00;99782.66;4918021;29;20039;-85
2022/09/12 04:49:05;;;;;;;4.18;0.40;;;;;;;16.66;100.00;99782.03;4918080;29;20036;-86
2022/09/12 04:51:34;;;;;;;1.27;0.40;;;;;;;16.66;100.00;99789.25;4886166;29;20036;-87
2022/09/12 04:54:15;;;;;;;1.00;0.30;;;;;;;16.65;100.00;99785.72;4886967;29;20036;-87
2022/09/12 04:56:43;;;;;;;0.63;0.40;;;;;;;16.65;100.00;99791.06;4902195;29;20369;-85
2022/09/12 04:59:10;;;;;;;1.17;0.38;;;;;;;16.63;100.00;99787.78;4896192;29;20032;-87
2022/09/12 05:01:36;;;;;;;2.83;0.40;;;;;;;16.65;100.00;99787.56;4901839;29;20496;-85
2022/09/12 05:04:02;;;;;;;8.93;0.55;;;;;;;16.65;100.00;99783.06;4883670;29;20043;-86
2022/09/12 05:06:32;;;;;;;1.48;0.80;;;;;;;16.65;100.00;99785.72;4868296;29;20122;-86
2022/09/12 05:09:00;;;;;;;1.33;0.40;;;;;;;16.67;100.00;99788.19;4917719;29;20072;-86
2022/09/12 05:11:32;;;;;;;2.28;0.40;;;;;;;16.65;100.00;99793.75;4930250;29;20033;-86
2022/09/12 05:13:58;;;;;;;1.52;0.47;;;;;;;16.63;100.00;99798.44;4884271;29;20040;-86
2022/09/12 05:16:25;;;;;;;1.38;0.40;;;;;;;16.60;100.00;99799.69;4886306;29;20481;-85
2022/09/12 05:18:51;;;;;;;3.33;0.55;;;;;;;16.57;100.00;99796.56;4886383;29;20047;-86
2022/09/12 05:21:20;;;;;;;3.28;0.40;;;;;;;16.60;100.00;99806.84;4886378;29;20568;-87
2022/09/12 05:23:49;;;;;;;1.77;0.40;;;;;;;16.57;100.00;99804.59;4886507;29;20083;-87
2022/09/12 05:26:16;;;;;;;4.00;0.35;;;;;;;16.57;100.00;99808.09;4901718;29;20075;-87
2022/09/12 05:28:42;;;;;;;1.98;0.40;;;;;;;16.55;100.00;99804.78;4886062;29;20510;-87
2022/09/12 05:31:14;;;;;;;2.90;0.40;;;;;;;16.57;100.00;99804.59;4900767;29;20060;-87
2022/09/12 05:33:42;;;;;;;4.55;0.77;;;;;;;16.56;100.00;99809.09;4904295;29;20032;-87
2022/09/12 05:36:19;;;;;;;3.15;0.40;;;;;;;16.55;100.00;99812.78;4885198;29;20099;-87
2022/09/12 05:38:46;;;;;;;6.10;0.57;;;;;;;16.53;100.00;99822.81;4891286;29;20118;-87
2022/09/12 05:41:15;;;;;;;0.43;0.40;;;;;;;16.53;100.00;99820.16;4891489;29;20087;-87
2022/09/12 05:43:41;;;;;;;4.03;0.50;;;;;;;16.52;100.00;99812.34;4885038;29;20032;-87
2022/09/12 05:46:11;;;;;;;1.02;0.50;;;;;;;16.51;100.00;99819.56;4883937;29;20496;-87
2022/09/12 05:48:39;;;;;;;0.95;0.40;;;;;;;16.54;100.00;99821.00;4916121;29;20039;-87
2022/09/12 05:51:07;;;;;;;4.28;0.50;;;;;;;16.54;100.00;99821.81;4879211;29;20032;-87
2022/09/12 05:53:34;;;;;;;2.00;0.45;;;;;;;16.54;100.00;99827.16;4900473;29;20044;-87
2022/09/12 05:56:11;;;;;;;1.20;0.35;;;;;;;16.53;100.00;99827.34;4885132;29;20166;-87
2022/09/12 05:58:41;;;;;;;2.20;0.50;;;;;;;16.53;100.00;99825.50;4885109;29;20066;-87
2022/09/12 06:01:10;;;;;;;2.00;0.82;;;;;;;16.52;100.00;99820.34;4915984;29;20095;-87
2022/09/12 06:03:40;;;;;;;1.52;0.50;;;;;;;16.53;100.00;99812.16;4912899;29;20078;-88
2022/09/12 06:06:06;;;;;;;3.20;0.38;;;;;;;16.51;100.00;99803.56;4884951;29;20060;-87
2022/09/12 06:08:33;;;;;;;1.17;0.50;;;;;;;16.51;100.00;99816.06;4884486;29;20040;-87
2022/09/12 06:11:04;;;;;;;0.73;0.60;;;;;;;16.52;100.00;99818.53;4900315;29;20116;-87
2022/09/12 06:13:35;;;;;;;1.10;0.63;;;;;;;16.54;100.00;99824.50;4886706;29;20040;-86
2022/09/12 06:16:07;;;;;;;1.15;0.50;;;;;;;16.57;100.00;99823.25;4883700;29;20044;-87
2022/09/12 06:18:34;;;;;;;7.40;0.85;;;;;;;16.57;100.00;99821.41;4899792;29;20043;-87
2022/09/12 06:21:04;;;;;;;0.82;0.70;;;;;;;16.58;100.00;99820.38;4900091;29;20516;-87
2022/09/12 06:23:30;;;;;;;1.13;0.60;;;;;;;16.58;100.00;99830.25;4914993;29;20044;-86
2022/09/12 06:25:56;;;;;;;6.40;0.70;;;;;;;16.57;100.00;99828.59;4882533;29;20044;-85
2022/09/12 06:28:22;;;;;;;1.00;0.70;;;;;;;16.55;100.00;99818.13;4898612;29;20545;-86
2022/09/12 06:30:48;;;;;;;1.73;0.80;;;;;;;16.56;100.00;99826.97;4878706;29;20025;-87
2022/09/12 06:33:14;;;;;;;2.75;0.68;;;;;;;16.56;100.00;99821.63;4883297;29;20399;-86
2022/09/12 06:35:40;;;;;;;2.72;0.75;;;;;;;16.56;100.00;99818.94;4879481;29;20066;-87
2022/09/12 06:38:06;;;;;;;1.05;0.60;;;;;;;16.57;100.00;99821.41;4898884;29;20051;-86
2022/09/12 06:40:32;;;;;;;1.67;0.70;;;;;;;16.61;100.00;99819.19;4925338;29;20048;-87
2022/09/12 06:42:58;;;;;;;3.67;0.80;;;;;;;16.65;100.00;99811.59;4906685;29;20094;-87
2022/09/12 06:45:33;;;;;;;1.13;0.55;;;;;;;16.67;100.00;99810.38;4880656;29;20504;-87
2022/09/12 06:47:59;;;;;;;3.33;0.50;;;;;;;16.71;100.00;99808.13;4883054;29;20044;-86
2022/09/12 06:50:24;;;;;;;2.05;0.52;;;;;;;16.79;100.00;99817.78;4892739;29;20033;-88
2022/09/12 06:52:50;;;;;;;1.67;0.50;;;;;;;16.89;100.00;99820.06;4883984;29;20040;-86
2022/09/12 06:55:17;;;;;;;9.60;0.90;;;;;;;16.99;100.00;99824.00;4896447;29;20040;-88
2022/09/12 06:57:43;;;;;;;2.92;0.80;;;;;;;17.01;100.00;99812.31;4908168;29;20047;-88
2022/09/12 07:00:09;;;;;;;2.65;0.75;;;;;;;17.08;100.00;99831.84;4886834;29;20060;-88
2022/09/12 07:02:35;;;;;;;3.15;0.60;;;;;;;17.06;100.00;99828.53;4895316;29;20091;-88
2022/09/12 07:05:01;;;;;;;0.75;0.70;;;;;;;17.06;100.00;99837.38;4886128;29;20043;-88
2022/09/12 07:07:26;;;;;;;2.85;0.98;;;;;;;17.07;100.00;99835.53;4887989;29;20043;-87
2022/09/12 07:09:53;;;;;;;4.88;0.80;;;;;;;17.09;100.00;99841.50;4903157;29;20044;-88
2022/09/12 07:12:18;;;;;;;2.05;0.85;;;;;;;17.11;100.00;99834.94;4903515;29;20044;-87
2022/09/12 07:14:44;;;;;;;2.13;0.90;;;;;;;17.14;100.00;99838.25;4903572;29;20119;-88
2022/09/12 07:17:11;;;;;;;1.25;0.68;;;;;;;17.15;100.00;99847.88;4903443;29;20032;-89
2022/09/12 07:19:37;;;;;;;4.90;0.60;;;;;;;17.15;100.00;99850.56;4903423;29;20047;-87
2022/09/12 07:22:07;;;;;;;2.15;1.38;;;;;;;17.18;100.00;99860.84;4903347;29;20036;-87
2022/09/12 07:24:33;;;;;;;1.55;0.50;;;;;;;17.16;100.00;99861.03;4887673;29;20043;-88
2022/09/12 07:26:59;;;;;;;2.50;0.63;;;;;;;17.16;100.00;99858.38;4872731;29;20044;-87
2022/09/12 07:29:25;;;;;;;1.33;0.50;;;;;;;17.18;100.00;99863.50;4916006;29;20040;-87
2022/09/12 07:31:51;;;;;;;2.15;0.60;;;;;;;17.19;100.00;99855.28;4901620;29;20578;-87
2022/09/12 07:34:17;;;;;;;0.50;0.50;;;;;;;17.24;100.00;99862.69;4887846;29;20036;-87
2022/09/12 07:36:43;;;;;;;0.90;0.50;;;;;;;17.26;100.00;99865.16;4892402;29;20040;-89
2022/09/12 07:39:09;;;;;;;4.80;0.80;;;;;;;17.29;100.00;99867.41;4893524;29;20091;-90
2022/09/12 07:41:35;;;;;;;2.20;0.80;;;;;;;17.25;100.00;99863.53;4883774;29;20053;-87
2022/09/12 07:44:02;;;;;;;2.55;0.90;;;;;;;17.30;100.00;99869.06;4884353;29;20059;-82
2022/09/12 07:47:00;;;;;;;1.65;0.77;;;;;;;17.30;100.00;99864.53;5387255;23;20018;31
2022/09/12 07:49:26;;;;;;;3.60;0.60;;;;;;;17.30;100.00;99867.22;4992206;23;20056;-87
2022/09/12 07:51:57;;;;;;;1.67;0.68;;;;;;;17.30;100.00;99859.22;4877626;29;20107;-92
2022/09/12 07:54:24;;;;;;;2.42;0.43;;;;;;;17.29;100.00;99854.06;4890184;29;20047;-91
2022/09/12 07:56:53;;;;;;;1.88;0.80;;;;;;;17.33;100.00;99866.81;4884170;29;20036;-91
2022/09/12 07:59:19;;;;;;;1.20;0.45;;;;;;;17.38;100.00;99863.53;4913070;29;20392;-91
2022/09/12 08:01:46;;;;;;;2.80;0.47;;;;;;;17.44;100.00;99872.59;4901201;29;20040;-93
2022/09/12 08:04:17;;;;;;;3.08;0.40;;;;;;;17.47;100.00;99861.50;4900493;29;20064;-93
2022/09/12 08:06:43;;;;;;;2.63;0.40;;;;;;;17.45;100.00;99856.34;4880355;29;20071;-88
2022/09/12 08:09:11;;;;;;;0.73;0.45;;;;;;;17.40;100.00;99847.28;4880604;29;20044;-88
2022/09/12 08:11:37;;;;;;;3.05;0.57;;;;;;;17.41;100.00;99857.78;4885614;29;20502;-94
2022/09/12 08:14:21;;;;;;;3.72;0.50;;;;;;;17.43;100.00;99853.06;4885750;29;20048;-95
2022/09/12 08:17:06;;;;;;;0.60;0.60;;;;;;;17.45;100.00;99851.00;4898496;29;20055;-93
2022/09/12 08:19:48;;;;;;;0.70;0.70;;;;;;;17.50;100.00;99841.56;4900416;29;20028;-93
2022/09/12 08:22:20;;;;;;;2.13;0.70;;;;;;;17.53;100.00;99857.16;4908181;29;20044;-94
2022/09/12 08:24:49;;;;;;;1.05;0.80;;;;;;;17.54;100.00;99858.81;4915507;29;20417;-93
2022/09/12 08:27:18;;;;;;;1.50;0.80;;;;;;;17.55;100.00;99863.16;4886286;29;20036;-94
2022/09/12 08:29:49;;;;;;;2.15;0.90;;;;;;;17.53;100.00;99865.19;4904017;29;20505;-94
2022/09/12 08:32:34;;;;;;;2.20;0.80;;;;;;;17.55;100.00;99873.84;4925803;29;20036;-94
2022/09/12 08:35:03;;;;;;;1.25;0.70;;;;;;;17.56;100.00;99876.31;4902374;29;20039;-93
2022/09/12 08:37:31;;;;;;;2.38;0.88;;;;;;;17.59;100.00;99873.22;4901253;29;20036;-93
2022/09/12 08:39:57;;;;;;;1.90;0.98;;;;;;;17.59;100.00;99867.88;4902594;29;20032;-95
2022/09/12 08:42:53;;;;;;;0.80;0.75;;;;;;;17.63;100.00;99856.78;4898987;29;20044;-89
2022/09/12 08:45:34;;;;;;;1.45;1.20;;;;;;;17.67;100.00;99861.50;4913357;29;20037;-93
2022/09/12 08:48:08;;;;;;;1.95;1.30;;;;;;;17.69;100.00;99853.28;4914831;29;20524;-92
2022/09/12 08:50:37;;;;;;;1.23;0.98;;;;;;;17.67;100.00;99858.81;4881422;29;20038;-88
2022/09/12 08:53:15;;;;;;;2.88;0.98;;;;;;;17.69;100.00;99848.75;4896085;29;20050;-89
2022/09/12 08:55:54;;;;;;;1.20;1.08;;;;;;;17.75;100.00;99855.13;4932469;29;20032;-93
2022/09/12 08:58:39;;;;;;;1.63;0.88;;;;;;;17.82;100.00;99863.94;4893340;29;20119;-94
2022/09/12 09:01:31;;;;;;;1.45;1.10;;;;;;;17.91;100.00;99863.72;4899264;29;20095;-89
2022/09/12 09:04:13;;;;;;;1.40;1.30;;;;;;;17.98;100.00;99867.25;4898146;29;20040;-88
2022/09/12 09:07:17;;;;;;;2.15;1.17;;;;;;;18.02;100.00;99870.28;4899035;29;20048;-88
2022/09/12 09:16:41;;;;;;;2.25;1.42;;;;;;;18.12;100.00;99875.25;4901307;29;20074;-90
2022/09/12 09:19:18;;;;;;;1.45;1.27;;;;;;;18.17;100.00;99878.13;4912141;29;20046;-89
2022/09/12 09:21:53;;;;;;;4.43;2.10;;;;;;;18.20;100.00;99885.75;4900395;29;20370;-88
2022/09/12 09:24:27;;;;;;;4.85;2.50;;;;;;;18.22;100.00;99883.66;4916306;29;20050;-89
2022/09/12 09:27:29;;;;;;;4.95;2.33;;;;;;;18.19;100.00;99890.25;4898097;29;20059;-91
2022/09/12 09:29:56;;;;;;;3.30;2.15;;;;;;;18.18;100.00;99885.13;4915080;29;20044;-91
2022/09/12 09:32:37;;;;;;;2.78;2.03;;;;;;;18.25;100.00;99887.78;4902872;29;20051;-91
2022/09/12 09:35:46;;;;;;;5.60;2.53;;;;;;;18.25;100.00;99891.25;4902320;29;20036;-91
2022/09/12 09:38:47;;;;;;;2.65;2.38;;;;;;;18.30;100.00;99893.34;4938680;29;20520;-94
2022/09/12 09:41:38;;;;;;;2.35;1.83;;;;;;;18.32;100.00;99897.44;4918133;29;20050;-94
2022/09/12 09:44:04;;;;;;;2.35;1.63;;;;;;;18.33;100.00;99898.28;4904125;29;20078;-94
2022/09/12 09:46:31;;;;;;;2.70;1.83;;;;;;;18.35;100.00;99904.22;4922202;29;20035;-96
2022/09/12 09:49:04;;;;;;;2.25;2.05;;;;;;;18.30;100.00;99896.00;4919510;29;20051;-96
2022/09/12 09:51:36;;;;;;;3.25;1.70;;;;;;;18.29;100.00;99907.72;4910749;29;20031;-94
2022/09/12 09:54:05;;;;;;;4.05;2.42;;;;;;;18.25;100.00;99912.66;4926953;29;20043;-95
2022/09/12 09:56:34;;;;;;;3.63;2.67;;;;;;;18.20;100.00;99907.13;4921175;29;20095;-96
2022/09/12 09:59:30;;;;;;;2.30;2.10;;;;;;;18.12;100.00;99916.19;4909137;29;20381;-95
2022/09/12 10:02:02;;;;;;;;;;;;;;;17.95;100.00;99921.09;4915732;29;20130;-95
2022/09/12 10:04:31;;;;;;;0.95;0.80;;;;;;;17.91;100.00;99926.06;4905318;29;19914;-94
2022/09/12 10:07:03;;;;;;;1.38;0.60;;;;;;;17.66;100.00;99928.50;4916056;29;20383;-95
2022/09/12 10:09:34;;;;;;;0.40;0.35;;;;;;;17.51;100.00;99936.69;4895334;29;20127;-95
2022/09/12 10:12:19;;;;;;;0.73;0.30;;;;;;;17.36;100.00;99935.84;4916366;29;20040;-95
2022/09/12 10:15:00;;;;;;;0.20;0.20;;;;;;;17.30;100.00;99942.00;4915671;29;20051;-93
2022/09/12 10:17:27;;;;;;;0.20;0.20;;;;;;;17.21;100.00;99938.72;4916634;29;20126;-94
2022/09/12 10:19:54;;;;;;;0.52;0.20;;;;;;;17.09;100.00;99938.44;4914186;29;20043;-95
2022/09/12 10:22:26;;;;;;;0.52;0.32;;;;;;;17.02;100.00;99931.41;4906654;29;20493;-95
2022/09/12 10:24:56;;;;;;;4.30;0.10;;;;;;;16.91;100.00;99938.97;4914195;29;20043;-93
2022/09/12 10:27:24;;;;;;;0.73;0.15;;;;;;;16.93;100.00;99946.78;4893988;29;20127;-94
2022/09/12 10:29:58;;;;;;;0.52;0.20;;;;;;;16.91;100.00;99952.34;4915416;29;20122;-94
2022/09/12 10:32:28;;;;;;;1.65;0.20;;;;;;;16.90;100.00;99949.84;4930974;29;20078;-94
2022/09/12 10:35:08;;;;;;;0.88;0.30;;;;;;;16.81;100.00;99955.34;4950411;28;20067;-95
2022/09/12 10:37:37;;;;;;;1.05;0.30;;;;;;;16.79;100.00;99952.06;4931570;29;20467;-96
2022/09/12 10:40:05;;;;;;;0.90;0.30;;;;;;;16.76;100.00;99944.44;4904583;29;20040;-96
2022/09/12 10:42:41;;;;;;;0.10;0.10;;;;;;;16.72;100.00;99954.69;4902537;29;20035;-94
2022/09/12 10:45:18;;;;;;;2.70;0.15;;;;;;;16.76;100.00;99949.78;4918094;29;20043;-94
2022/09/12 10:47:45;;;;;;;0.20;0.10;;;;;;;16.79;100.00;99951.22;4934512;29;20067;-95
2022/09/12 10:50:39;;;;;;;0.17;0.15;;;;;;;16.69;100.00;99951.59;4903797;29;20050;-94
2022/09/12 10:53:20;;;;;;;1.45;0.20;;;;;;;16.66;100.00;99955.47;4895941;29;20051;-95
2022/09/12 10:56:09;;;;;;;0.57;0.30;;;;;;;16.73;100.00;99951.00;4915858;29;20048;-95
2022/09/12 10:58:56;;;;;;;0.43;0.20;;;;;;;16.79;100.00;99957.38;4904115;29;20051;-94
2022/09/12 11:01:30;;;;;;;0.60;0.25;;;;;;;16.88;100.00;99962.56;4919785;29;20036;-94
2022/09/12 11:04:34;;;;;;;0.30;0.20;;;;;;;16.88;100.00;99971.41;4913692;29;20096;-95
2022/09/12 11:07:29;;;;;;;1.35;0.40;;;;;;;16.92;100.00;99979.81;4934989;29;20032;-94
2022/09/12 11:10:25;;;;;;;0.40;0.20;;;;;;;16.83;100.00;99979.97;4929595;29;20437;-95
2022/09/12 11:13:28;;;;;;;0.88;0.30;;;;;;;16.86;100.00;99968.09;4914121;29;20032;-95
2022/09/12 11:16:13;;;;;;;1.35;0.40;;;;;;;17.02;100.00;99966.13;4904294;29;20044;-95
2022/09/12 11:18:49;;;;;;;0.30;0.20;;;;;;;17.11;100.00;99962.28;4915974;29;20043;-95
2022/09/12 11:21:36;;;;;;;0.93;0.20;;;;;;;17.12;100.00;99963.91;4903271;29;20467;-95
2022/09/12 11:24:17;;;;;;;0.43;0.17;;;;;;;17.08;100.00;99960.84;4927963;29;20091;-95
2022/09/12 11:26:58;;;;;;;3.05;0.30;;;;;;;17.13;100.00;99962.06;4931480;29;20035;-95
2022/09/12 11:29:44;;;;;;;0.52;0.10;;;;;;;17.13;100.00;99960.25;4903089;29;20131;-95
2022/09/12 11:32:44;;;;;;;0.73;0.40;;;;;;;17.18;100.00;99962.31;4911784;29;20040;-95
2022/09/12 11:35:29;;;;;;;1.48;0.30;;;;;;;17.17;100.00;99961.47;4921907;29;20039;-95
2022/09/12 11:38:03;;;;;;;0.60;0.60;;;;;;;17.25;100.00;99959.66;4901955;29;20608;-96
2022/09/12 11:40:43;;;;;;;2.50;0.47;;;;;;;17.36;100.00;99962.56;4916594;29;20050;-95
2022/09/12 11:43:19;;;;;;;3.03;0.85;;;;;;;17.40;100.00;99965.66;4920728;29;20027;-94
2022/09/12 11:45:46;;;;;;;1.05;0.50;;;;;;;17.40;100.00;99967.50;4913271;29;20488;-96
2022/09/12 11:48:24;;;;;;;0.68;0.63;;;;;;;17.44;100.00;99971.44;4906311;29;20107;-96
2022/09/12 11:50:51;;;;;;;0.93;0.50;;;;;;;17.43;100.00;99975.94;4919688;29;20031;-96
2022/09/12 11:53:29;;;;;;;2.38;1.10;;;;;;;17.45;100.00;99970.41;4919730;29;20700;-96
2022/09/12 11:56:09;;;;;;;1.60;0.80;;;;;;;17.44;100.00;99972.25;4936421;29;20122;-96
2022/09/12 11:58:37;;;;;;;2.65;0.93;;;;;;;17.50;100.00;99978.66;4925408;29;20481;-96